Time;durP1;ratioP1;P1;durP2;ratioP2;P2;SDS_P1;SDS_P2;PMS_P1;PMS_P2;Temp;Humidity;BMP_temperature;BMP_pressure;BME280_temperature;BME280_humidity;BME280_pressure;Samples;Min_cycle;Max_cycle;Signal;HPM_P1;HPM_P2
2022/01/05 00:01:00;;;;;;;28.47;15.20;;;;;;;;;;10327637;28;20030;-61
2022/01/05 00:06:01;;;;;;;19.98;13.55;;;;;;;;;;10333039;28;20452;-61
2022/01/05 00:11:01;;;;;;;19.60;14.73;;;;;;;;;;10330845;28;20045;-62
2022/01/05 00:16:02;;;;;;;20.52;14.38;;;;;;;;;;10331713;28;20165;-60
2022/01/05 00:21:04;;;;;;;19.40;14.13;;;;;;;;;;10332515;28;20026;-61
2022/01/05 00:26:05;;;;;;;21.80;13.27;;;;;;;;;;10331859;28;20033;-60
2022/01/05 00:31:05;;;;;;;20.67;13.60;;;;;;;;;;10331002;28;20699;-61
2022/01/05 00:36:05;;;;;;;22.25;13.77;;;;;;;;;;10331336;28;20070;-60
2022/01/05 00:41:06;;;;;;;19.37;13.67;;;;;;;;;;10330729;28;20081;-60
2022/01/05 00:46:07;;;;;;;20.10;13.27;;;;;;;;;;10331179;28;20445;-60
2022/01/05 00:51:08;;;;;;;24.33;13.52;;;;;;;;;;10330330;28;20053;-60
2022/01/05 00:56:09;;;;;;;19.83;12.65;;;;;;;;;;10330938;28;20037;-60
2022/01/05 01:01:09;;;;;;;16.70;12.32;;;;;;;;;;10324194;28;20513;-59
2022/01/05 01:06:10;;;;;;;18.33;12.67;;;;;;;;;;10330288;28;20030;-60
2022/01/05 01:11:10;;;;;;;16.40;12.35;;;;;;;;;;10329520;28;20812;-59
2022/01/05 01:16:10;;;;;;;16.97;11.83;;;;;;;;;;10329404;28;20120;-60
2022/01/05 01:21:11;;;;;;;16.03;11.50;;;;;;;;;;10329706;28;20472;-59
2022/01/05 01:26:11;;;;;;;14.50;10.97;;;;;;;;;;10329433;28;20428;-59
2022/01/05 01:31:11;;;;;;;15.60;11.80;;;;;;;;;;10328157;28;20820;-59
2022/01/05 01:36:12;;;;;;;15.83;11.33;;;;;;;;;;10328979;28;20390;-61
2022/01/05 01:41:12;;;;;;;16.35;11.50;;;;;;;;;;10328523;28;20374;-61
2022/01/05 01:46:13;;;;;;;13.45;10.82;;;;;;;;;;10328811;28;20026;-60
2022/01/05 01:51:14;;;;;;;16.02;11.93;;;;;;;;;;10328369;28;20035;-60
2022/01/05 01:56:14;;;;;;;15.23;11.25;;;;;;;;;;10328448;28;20034;-61
2022/01/05 02:01:16;;;;;;;16.80;11.07;;;;;;;;;;10308111;28;20057;-60
2022/01/05 02:06:16;;;;;;;14.98;10.52;;;;;;;;;;10328033;28;20037;-60
2022/01/05 02:11:18;;;;;;;17.63;10.63;;;;;;;;;;10327849;28;20026;-60
2022/01/05 02:16:20;;;;;;;15.10;10.82;;;;;;;;;;10325955;28;20420;-61
2022/01/05 02:21:21;;;;;;;15.30;10.95;;;;;;;;;;10327425;28;20018;-62
2022/01/05 02:26:21;;;;;;;15.13;11.07;;;;;;;;;;10326944;28;20081;-61
2022/01/05 02:31:22;;;;;;;14.48;10.77;;;;;;;;;;10327236;28;20578;-60
2022/01/05 02:36:22;;;;;;;13.70;10.07;;;;;;;;;;10327399;28;20054;-60
2022/01/05 02:41:23;;;;;;;11.67;10.10;;;;;;;;;;10326636;28;20030;-60
2022/01/05 02:46:24;;;;;;;15.23;10.70;;;;;;;;;;10327707;28;20519;-59
2022/01/05 02:51:24;;;;;;;15.18;10.80;;;;;;;;;;10327221;28;20030;-60
2022/01/05 02:56:25;;;;;;;13.20;10.63;;;;;;;;;;10334286;28;20115;-60
2022/01/05 03:01:25;;;;;;;12.80;9.70;;;;;;;;;;10333722;28;20986;-60
2022/01/05 03:06:25;;;;;;;13.30;10.13;;;;;;;;;;10335300;28;20444;-60
2022/01/05 03:11:26;;;;;;;15.93;10.47;;;;;;;;;;10334236;28;20114;-60
2022/01/05 03:16:26;;;;;;;13.73;10.00;;;;;;;;;;10334953;28;20531;-60
2022/01/05 03:21:26;;;;;;;14.07;10.07;;;;;;;;;;10333835;28;20979;-60
2022/01/05 03:26:27;;;;;;;14.47;10.17;;;;;;;;;;10334076;28;20559;-61
2022/01/05 03:31:27;;;;;;;14.30;10.27;;;;;;;;;;10333654;28;20517;-63
2022/01/05 03:36:28;;;;;;;13.07;9.77;;;;;;;;;;10333837;28;20575;-61
2022/01/05 03:41:28;;;;;;;17.73;9.90;;;;;;;;;;10333200;28;20455;-61
2022/01/05 03:46:28;;;;;;;14.87;10.63;;;;;;;;;;10332322;28;20057;-61
2022/01/05 03:51:29;;;;;;;18.27;10.77;;;;;;;;;;10333253;28;20034;-59
2022/01/05 03:56:30;;;;;;;13.55;9.75;;;;;;;;;;10332530;28;20085;-60
2022/01/05 04:01:30;;;;;;;12.65;9.57;;;;;;;;;;10332656;28;20035;-60
2022/01/05 04:06:31;;;;;;;15.57;10.40;;;;;;;;;;10331851;28;20030;-60
2022/01/05 04:11:31;;;;;;;12.17;9.07;;;;;;;;;;10331893;28;20514;-60
2022/01/05 04:16:31;;;;;;;13.43;10.07;;;;;;;;;;10331753;28;20990;-59
2022/01/05 04:21:32;;;;;;;14.00;9.90;;;;;;;;;;10329122;28;20382;-60
2022/01/05 04:26:32;;;;;;;14.67;9.50;;;;;;;;;;10328694;28;20433;-59
2022/01/05 04:31:32;;;;;;;13.50;9.83;;;;;;;;;;10331296;28;20480;-60
2022/01/05 04:36:33;;;;;;;14.23;9.43;;;;;;;;;;10331207;28;20619;-59
2022/01/05 04:41:33;;;;;;;12.43;9.32;;;;;;;;;;10331579;28;20029;-60
2022/01/05 04:46:34;;;;;;;14.37;9.90;;;;;;;;;;10330998;28;20037;-60
2022/01/05 04:51:34;;;;;;;15.65;9.85;;;;;;;;;;10330678;28;20463;-60
2022/01/05 04:56:34;;;;;;;11.70;9.07;;;;;;;;;;10330758;28;20032;-59
2022/01/05 05:01:35;;;;;;;14.37;9.50;;;;;;;;;;10330319;28;20524;-60
2022/01/05 05:06:36;;;;;;;12.23;9.27;;;;;;;;;;10330169;28;20483;-60
2022/01/05 05:11:36;;;;;;;12.10;9.43;;;;;;;;;;10329843;28;20022;-60
2022/01/05 05:16:36;;;;;;;10.83;8.93;;;;;;;;;;10329182;28;20440;-61
2022/01/05 05:21:37;;;;;;;11.10;8.65;;;;;;;;;;10329486;28;20479;-61
2022/01/05 05:26:37;;;;;;;13.40;8.90;;;;;;;;;;10326359;28;20061;-61
2022/01/05 05:31:38;;;;;;;11.97;8.77;;;;;;;;;;10325734;28;20490;-61
2022/01/05 05:36:38;;;;;;;11.47;8.30;;;;;;;;;;10329598;28;20022;-60
2022/01/05 05:41:38;;;;;;;10.88;8.43;;;;;;;;;;10328854;28;20458;-59
2022/01/05 05:46:39;;;;;;;10.67;8.40;;;;;;;;;;10329245;28;20041;-60
2022/01/05 05:51:39;;;;;;;9.60;7.70;;;;;;;;;;10328450;28;20523;-60
2022/01/05 05:56:39;;;;;;;11.93;8.47;;;;;;;;;;10328444;28;20026;-60
2022/01/05 06:01:40;;;;;;;12.80;8.10;;;;;;;;;;10328526;28;20018;-62
2022/01/05 06:06:40;;;;;;;9.35;7.55;;;;;;;;;;10328629;28;20799;-62
2022/01/05 06:11:41;;;;;;;11.90;8.63;;;;;;;;;;10328120;28;20038;-61
2022/01/05 06:16:43;;;;;;;10.23;7.80;;;;;;;;;;10327508;28;20824;-62
2022/01/05 06:21:44;;;;;;;11.30;8.82;;;;;;;;;;10327673;28;20023;-62
2022/01/05 06:26:47;;;;;;;11.98;8.35;;;;;;;;;;10327420;28;20494;-60
2022/01/05 06:31:47;;;;;;;9.45;7.88;;;;;;;;;;10324051;28;20046;-62
2022/01/05 06:36:48;;;;;;;10.70;7.73;;;;;;;;;;10327507;28;20351;-60
2022/01/05 06:41:49;;;;;;;10.25;7.78;;;;;;;;;;10322967;28;20468;-62
2022/01/05 06:46:49;;;;;;;13.90;8.43;;;;;;;;;;10326430;28;20031;-61
2022/01/05 06:51:51;;;;;;;11.00;7.43;;;;;;;;;;10327577;28;20862;-62
2022/01/05 06:56:51;;;;;;;8.85;7.28;;;;;;;;;;10327081;28;20109;-59
2022/01/05 07:01:51;;;;;;;8.97;7.23;;;;;;;;;;10326717;28;20605;-60
2022/01/05 07:06:52;;;;;;;10.93;7.77;;;;;;;;;;10325996;28;20455;-62
2022/01/05 07:11:52;;;;;;;10.40;7.65;;;;;;;;;;10326429;28;20464;-62
2022/01/05 07:16:52;;;;;;;9.50;7.57;;;;;;;;;;10326880;28;20375;-61
2022/01/05 07:21:53;;;;;;;9.43;7.63;;;;;;;;;;10325997;28;20465;-60
2022/01/05 07:26:55;;;;;;;10.07;7.37;;;;;;;;;;10325894;28;20433;-60
2022/01/05 07:31:56;;;;;;;8.43;7.35;;;;;;;;;;10324796;28;20078;-60
2022/01/05 07:36:56;;;;;;;8.73;7.05;;;;;;;;;;10324542;28;20083;-60
2022/01/05 07:41:57;;;;;;;11.02;7.38;;;;;;;;;;10328634;28;20521;-60
2022/01/05 07:46:57;;;;;;;9.33;7.10;;;;;;;;;;10327236;28;20026;-60
2022/01/05 07:51:58;;;;;;;7.40;6.70;;;;;;;;;;10331098;28;20467;-60
2022/01/05 07:56:59;;;;;;;8.47;6.63;;;;;;;;;;10332002;28;20940;-59
2022/01/05 08:01:59;;;;;;;8.00;6.55;;;;;;;;;;10331319;28;20452;-60
2022/01/05 08:06:59;;;;;;;10.37;7.47;;;;;;;;;;10332503;28;20025;-59
2022/01/05 08:12:00;;;;;;;9.65;7.00;;;;;;;;;;10331736;28;20499;-59
2022/01/05 08:17:00;;;;;;;9.00;6.40;;;;;;;;;;10332718;28;20027;-59
2022/01/05 08:22:01;;;;;;;10.00;7.50;;;;;;;;;;10332132;28;20519;-60
2022/01/05 08:27:01;;;;;;;12.13;7.07;;;;;;;;;;10331556;28;20961;-61
2022/01/05 08:32:02;;;;;;;14.88;8.38;;;;;;;;;;10331988;28;20596;-61
2022/01/05 08:37:03;;;;;;;13.35;8.75;;;;;;;;;;10330991;28;20022;-63
2022/01/05 08:42:04;;;;;;;11.23;8.27;;;;;;;;;;10330222;28;20026;-63
2022/01/05 08:47:05;;;;;;;14.57;9.52;;;;;;;;;;10328322;28;20109;-60
2022/01/05 08:52:05;;;;;;;13.50;9.15;;;;;;;;;;10331146;28;20415;-61
2022/01/05 08:57:06;;;;;;;12.85;8.40;;;;;;;;;;10326907;28;20410;-64
2022/01/05 09:02:07;;;;;;;14.35;8.85;;;;;;;;;;10329776;28;20034;-62
2022/01/05 09:07:07;;;;;;;11.20;7.80;;;;;;;;;;10330758;28;20034;-63
2022/01/05 09:12:08;;;;;;;12.07;8.45;;;;;;;;;;10329978;28;20030;-61
2022/01/05 09:17:09;;;;;;;14.90;8.32;;;;;;;;;;10329581;28;20030;-61
2022/01/05 09:22:10;;;;;;;9.48;7.28;;;;;;;;;;10328865;28;20030;-61
2022/01/05 09:27:10;;;;;;;13.60;8.07;;;;;;;;;;10329360;28;20052;-60
2022/01/05 09:32:11;;;;;;;11.45;8.02;;;;;;;;;;10327905;28;20538;-60
2022/01/05 09:37:22;;;;;;;9.85;7.45;;;;;;;;;;10329177;28;20113;-62
2022/01/05 09:42:23;;;;;;;15.73;7.22;;;;;;;;;;10327767;28;20458;-62
2022/01/05 09:47:31;;;;;;;9.90;7.60;;;;;;;;;;10328192;28;20026;-61
2022/01/05 09:52:33;;;;;;;12.30;7.70;;;;;;;;;;10327866;28;20512;-60
2022/01/05 09:57:34;;;;;;;11.15;7.32;;;;;;;;;;10325095;28;20241;-59
2022/01/05 10:02:34;;;;;;;9.43;6.72;;;;;;;;;;10324625;28;20109;-62
2022/01/05 10:07:35;;;;;;;11.23;7.27;;;;;;;;;;10327981;28;20117;-60
2022/01/05 10:12:36;;;;;;;10.25;6.55;;;;;;;;;;10327632;28;20034;-60
2022/01/05 10:17:38;;;;;;;12.93;6.23;;;;;;;;;;10327848;28;20266;-61
2022/01/05 10:22:43;;;;;;;9.15;6.75;;;;;;;;;;10326472;28;20456;-63
2022/01/05 10:27:57;;;;;;;8.07;6.72;;;;;;;;;;10327468;28;20030;-61
2022/01/05 10:32:58;;;;;;;9.63;6.88;;;;;;;;;;10327168;28;20402;-62
2022/01/05 10:38:04;;;;;;;10.63;6.63;;;;;;;;;;10327945;28;20027;-60
2022/01/05 10:43:13;;;;;;;10.75;6.65;;;;;;;;;;10326919;28;21017;-61
2022/01/05 10:48:14;;;;;;;;;;;;;;;;;;10326813;28;20524;-61
2022/01/05 10:53:18;;;;;;;10.65;6.05;;;;;;;;;;10326263;28;19920;-61
2022/01/05 10:58:19;;;;;;;6.93;5.75;;;;;;;;;;10327351;28;20026;-63
2022/01/05 11:03:41;;;;;;;8.63;6.05;;;;;;;;;;10323959;28;20042;-63
2022/01/05 11:08:56;;;;;;;8.57;6.10;;;;;;;;;;10324622;28;20114;-64
2022/01/05 11:13:56;;;;;;;9.10;6.38;;;;;;;;;;10328957;28;20351;-62
2022/01/05 11:19:22;;;;;;;8.63;6.20;;;;;;;;;;10334489;28;20022;-62
2022/01/05 11:24:24;;;;;;;7.47;6.03;;;;;;;;;;10333215;28;20917;-60
2022/01/05 11:29:24;;;;;;;9.38;5.93;;;;;;;;;;10333590;28;20035;-60
2022/01/05 11:34:29;;;;;;;8.65;6.22;;;;;;;;;;10333428;28;20062;-60
2022/01/05 11:39:31;;;;;;;14.25;6.20;;;;;;;;;;10334158;28;20113;-61
2022/01/05 11:44:44;;;;;;;9.27;5.38;;;;;;;;;;10332530;28;20463;-62
2022/01/05 11:49:45;;;;;;;7.28;5.35;;;;;;;;;;10333098;28;20027;-62
2022/01/05 11:55:04;;;;;;;8.85;5.93;;;;;;;;;;10332815;28;20243;-62
2022/01/05 12:00:16;;;;;;;6.90;5.43;;;;;;;;;;10332555;28;20387;-59
2022/01/05 12:05:17;;;;;;;17.17;6.40;;;;;;;;;;10329216;28;20027;-65
2022/01/05 12:10:22;;;;;;;9.10;5.53;;;;;;;;;;10329930;28;20033;-60
2022/01/05 12:15:43;;;;;;;9.13;5.60;;;;;;;;;;10332474;28;20506;-61
2022/01/05 12:20:43;;;;;;;10.18;5.43;;;;;;;;;;10331378;28;20030;-60
2022/01/05 12:26:08;;;;;;;8.07;5.67;;;;;;;;;;10331886;28;20027;-60
2022/01/05 12:31:11;;;;;;;7.07;5.43;;;;;;;;;;10331346;28;20503;-62
2022/01/05 12:36:15;;;;;;;6.07;4.75;;;;;;;;;;10329812;28;20134;-62
2022/01/05 12:41:23;;;;;;;10.35;5.45;;;;;;;;;;10331586;28;20113;-63
2022/01/05 12:46:37;;;;;;;7.83;5.40;;;;;;;;;;10330683;28;20027;-63
2022/01/05 12:51:42;;;;;;;6.95;5.00;;;;;;;;;;10330692;28;20041;-65
2022/01/05 12:56:51;;;;;;;5.70;5.05;;;;;;;;;;10330598;28;20023;-66
2022/01/05 13:01:53;;;;;;;10.65;5.60;;;;;;;;;;10330592;28;20077;-65
2022/01/05 13:06:58;;;;;;;7.57;5.47;;;;;;;;;;10330155;28;20030;-66
2022/01/05 13:12:08;;;;;;;8.57;5.25;;;;;;;;;;10326284;28;20037;-66
2022/01/05 13:17:11;;;;;;;7.43;5.22;;;;;;;;;;10325566;28;20486;-63
2022/01/05 13:22:16;;;;;;;7.35;4.93;;;;;;;;;;10328484;28;20065;-63
2022/01/05 13:27:24;;;;;;;7.40;4.95;;;;;;;;;;10329364;28;20030;-65
2022/01/05 13:32:27;;;;;;;7.93;4.28;;;;;;;;;;10328341;28;20564;-64
2022/01/05 13:37:31;;;;;;;5.65;4.53;;;;;;;;;;10328795;28;20402;-64
2022/01/05 13:42:47;;;;;;;6.07;4.88;;;;;;;;;;10328593;28;20061;-63
2022/01/05 13:47:48;;;;;;;8.25;5.25;;;;;;;;;;10328576;28;20053;-64
2022/01/05 13:52:56;;;;;;;9.35;4.82;;;;;;;;;;10328444;28;20096;-64
2022/01/05 13:58:27;;;;;;;8.38;5.03;;;;;;;;;;10327366;28;20553;-63
2022/01/05 14:03:32;;;;;;;6.32;4.53;;;;;;;;;;10328332;28;20084;-63
2022/01/05 14:08:37;;;;;;;12.00;4.40;;;;;;;;;;10328220;28;20026;-66
2022/01/05 14:13:44;;;;;;;8.02;4.90;;;;;;;;;;10327751;28;20061;-61
2022/01/05 14:18:45;;;;;;;6.60;4.65;;;;;;;;;;10324460;28;20164;-65
2022/01/05 14:23:46;;;;;;;6.82;4.22;;;;;;;;;;10324462;28;20030;-61
2022/01/05 14:28:46;;;;;;;7.40;4.38;;;;;;;;;;10326769;28;20030;-63
2022/01/05 14:33:52;;;;;;;6.80;4.55;;;;;;;;;;10325013;28;20047;-60
2022/01/05 14:39:05;;;;;;;5.65;4.55;;;;;;;;;;10326432;28;20030;-61
2022/01/05 14:44:14;;;;;;;6.95;4.55;;;;;;;;;;10326271;28;20034;-61
2022/01/05 14:49:16;;;;;;;7.00;4.68;;;;;;;;;;10331093;28;20030;-62
2022/01/05 14:54:17;;;;;;;9.25;4.53;;;;;;;;;;10334707;28;20041;-60
2022/01/05 14:59:17;;;;;;;7.15;4.30;;;;;;;;;;10334039;28;20366;-60
2022/01/05 15:04:18;;;;;;;6.90;4.07;;;;;;;;;;10334236;28;20033;-60
2022/01/05 15:09:19;;;;;;;6.32;4.60;;;;;;;;;;10333867;28;20037;-59
2022/01/05 15:14:19;;;;;;;8.20;5.05;;;;;;;;;;10333478;28;20030;-60
2022/01/05 15:19:20;;;;;;;8.27;4.90;;;;;;;;;;10334286;28;20105;-61
2022/01/05 15:24:20;;;;;;;6.07;4.10;;;;;;;;;;10328467;28;20030;-61
2022/01/05 15:29:20;;;;;;;5.80;4.10;;;;;;;;;;10334619;28;20475;-61
2022/01/05 15:34:21;;;;;;;5.20;4.20;;;;;;;;;;10332659;28;20809;-63
2022/01/05 15:39:21;;;;;;;6.23;4.60;;;;;;;;;;10333380;28;20030;-64
2022/01/05 15:44:23;;;;;;;7.30;4.40;;;;;;;;;;10334060;28;20507;-59
2022/01/05 15:49:24;;;;;;;5.28;4.45;;;;;;;;;;10332798;28;20531;-63
2022/01/05 15:54:24;;;;;;;6.88;4.30;;;;;;;;;;10332810;28;20046;-62
2022/01/05 16:04:44;;;;;;;5.15;4.40;;;;;;;;;;10332310;28;20054;-61
2022/01/05 16:09:45;;;;;;;5.80;3.83;;;;;;;;;;10332437;28;20493;-61
2022/01/05 16:14:45;;;;;;;7.93;3.88;;;;;;;;;;10331122;28;20030;-60
2022/01/05 16:19:46;;;;;;;7.05;4.22;;;;;;;;;;10331884;28;20026;-60
2022/01/05 16:24:46;;;;;;;8.40;4.20;;;;;;;;;;10328440;28;20027;-60
2022/01/05 16:29:47;;;;;;;5.90;3.85;;;;;;;;;;10328072;28;20022;-60
2022/01/05 16:34:48;;;;;;;4.35;3.92;;;;;;;;;;10330965;28;20081;-60
2022/01/05 16:39:48;;;;;;;6.43;3.70;;;;;;;;;;10331176;28;20470;-60
2022/01/05 16:44:49;;;;;;;5.35;3.92;;;;;;;;;;10330668;28;20433;-60
2022/01/05 16:49:50;;;;;;;8.13;4.13;;;;;;;;;;10329331;28;20089;-61
2022/01/05 16:54:59;;;;;;;4.05;3.58;;;;;;;;;;10330253;28;20464;-60
2022/01/05 17:05:18;;;;;;;4.88;3.78;;;;;;;;;;10329826;28;20418;-60
2022/01/05 17:10:19;;;;;;;5.78;3.97;;;;;;;;;;10328809;28;20447;-60
2022/01/05 17:15:19;;;;;;;4.72;3.65;;;;;;;;;;10328733;28;20121;-62
2022/01/05 17:20:20;;;;;;;3.90;3.30;;;;;;;;;;10328903;28;20125;-59
2022/01/05 17:25:21;;;;;;;5.10;3.95;;;;;;;;;;10328837;28;20040;-59
2022/01/05 17:30:23;;;;;;;5.43;3.40;;;;;;;;;;10324909;28;20050;-59
2022/01/05 17:35:24;;;;;;;4.80;3.47;;;;;;;;;;10325822;28;20062;-59
2022/01/05 17:40:24;;;;;;;4.82;3.55;;;;;;;;;;10329608;28;20030;-60
2022/01/05 17:45:25;;;;;;;11.38;4.22;;;;;;;;;;10328718;28;20321;-59
2022/01/05 17:50:26;;;;;;;4.65;3.80;;;;;;;;;;10328595;28;20030;-61
2022/01/05 17:55:38;;;;;;;3.55;2.97;;;;;;;;;;10328170;28;20034;-61
2022/01/05 18:00:42;;;;;;;4.03;2.95;;;;;;;;;;10327937;28;20023;-62
2022/01/05 18:05:43;;;;;;;4.50;3.05;;;;;;;;;;10328506;28;20038;-63
2022/01/05 18:10:43;;;;;;;9.00;3.10;;;;;;;;;;10326872;28;20076;-61
2022/01/05 18:15:44;;;;;;;5.65;3.30;;;;;;;;;;10269289;23;20142;-62
2022/01/05 18:20:46;;;;;;;8.55;3.97;;;;;;;;;;10247743;28;20114;-62
2022/01/05 18:25:46;;;;;;;9.77;3.67;;;;;;;;;;10247993;28;20033;-65
2022/01/05 18:30:47;;;;;;;6.55;3.28;;;;;;;;;;10246056;28;20369;-64
2022/01/05 18:35:48;;;;;;;9.18;3.58;;;;;;;;;;10241660;28;20043;-65
2022/01/05 18:40:49;;;;;;;8.00;3.07;;;;;;;;;;10245901;28;20030;-65
2022/01/05 18:45:50;;;;;;;4.85;3.30;;;;;;;;;;10243228;28;20445;-62
2022/01/05 18:50:50;;;;;;;6.03;3.13;;;;;;;;;;10245850;28;20023;-64
2022/01/05 18:55:50;;;;;;;5.60;3.30;;;;;;;;;;10246240;28;20110;-62
2022/01/05 19:00:54;;;;;;;7.10;3.30;;;;;;;;;;10245799;28;20027;-64
2022/01/05 19:05:54;;;;;;;3.50;2.80;;;;;;;;;;10245123;28;20446;-62
2022/01/05 19:10:55;;;;;;;10.63;3.83;;;;;;;;;;10245691;28;20118;-65
2022/01/05 19:15:57;;;;;;;4.85;3.17;;;;;;;;;;10245148;28;20106;-62
2022/01/05 19:20:57;;;;;;;8.95;3.70;;;;;;;;;;10246228;28;20407;-61
2022/01/05 19:25:58;;;;;;;4.80;3.67;;;;;;;;;;10246427;28;20027;-64
2022/01/05 19:30:58;;;;;;;9.73;3.53;;;;;;;;;;10246606;28;20951;-62
2022/01/05 19:35:58;;;;;;;7.00;3.27;;;;;;;;;;10249005;28;20438;-62
2022/01/05 19:40:59;;;;;;;7.67;2.93;;;;;;;;;;10252241;28;20433;-61
2022/01/05 19:45:59;;;;;;;6.18;3.70;;;;;;;;;;10245764;28;20449;-65
2022/01/05 19:51:12;;;;;;;18.07;4.93;;;;;;;;;;10251910;28;20027;-63
2022/01/05 19:56:38;;;;;;;8.02;3.95;;;;;;;;;;10252048;28;20484;-61
2022/01/05 20:01:39;;;;;;;13.18;3.38;;;;;;;;;;10251968;28;20122;-61
2022/01/05 20:06:39;;;;;;;9.32;3.88;;;;;;;;;;10252238;28;20128;-62
2022/01/05 20:11:40;;;;;;;7.25;3.70;;;;;;;;;;10252323;28;20027;-61
2022/01/05 20:16:40;;;;;;;6.50;3.67;;;;;;;;;;10252806;28;20039;-61
2022/01/05 20:21:41;;;;;;;5.35;3.15;;;;;;;;;;10252161;28;20039;-61
2022/01/05 20:26:41;;;;;;;12.07;3.10;;;;;;;;;;10252755;28;20039;-61
2022/01/05 20:31:42;;;;;;;7.18;3.55;;;;;;;;;;10251677;28;20065;-60
2022/01/05 20:36:45;;;;;;;14.75;3.60;;;;;;;;;;10251097;28;20026;-61
2022/01/05 20:41:46;;;;;;;7.85;3.13;;;;;;;;;;10252601;28;20063;-61
2022/01/05 20:46:46;;;;;;;7.75;3.13;;;;;;;;;;10247983;28;20435;-61
2022/01/05 20:51:46;;;;;;;7.10;3.30;;;;;;;;;;10247248;28;20472;-61
2022/01/05 20:56:47;;;;;;;4.75;2.75;;;;;;;;;;10250664;28;20509;-61
2022/01/05 21:01:48;;;;;;;6.13;2.67;;;;;;;;;;10250712;28;20102;-62
2022/01/05 21:06:48;;;;;;;5.13;3.03;;;;;;;;;;10250311;28;20031;-61
2022/01/05 21:11:48;;;;;;;5.07;2.57;;;;;;;;;;10249921;28;20565;-61
2022/01/05 21:16:49;;;;;;;3.90;2.33;;;;;;;;;;10250102;28;20035;-61
2022/01/05 21:21:49;;;;;;;6.68;2.47;;;;;;;;;;10248894;29;20110;-61
2022/01/05 21:26:50;;;;;;;9.38;3.10;;;;;;;;;;10250230;28;20029;-61
2022/01/05 21:31:50;;;;;;;4.43;2.40;;;;;;;;;;10249159;28;20023;-62
2022/01/05 21:36:51;;;;;;;3.77;2.57;;;;;;;;;;10249007;28;20446;-62
2022/01/05 21:41:51;;;;;;;3.33;2.65;;;;;;;;;;10248873;28;20541;-61
2022/01/05 21:46:52;;;;;;;3.65;2.65;;;;;;;;;;10248888;28;20475;-61
2022/01/05 21:51:52;;;;;;;5.22;2.60;;;;;;;;;;10242474;28;20055;-61
2022/01/05 21:56:53;;;;;;;3.15;2.33;;;;;;;;;;10247579;28;20050;-61
2022/01/05 22:01:53;;;;;;;4.47;2.57;;;;;;;;;;10248166;28;20065;-62
2022/01/05 22:06:54;;;;;;;4.15;2.47;;;;;;;;;;10248372;28;20019;-61
2022/01/05 22:11:54;;;;;;;6.40;2.50;;;;;;;;;;10247307;28;20484;-60
2022/01/05 22:16:55;;;;;;;2.77;1.97;;;;;;;;;;10247663;28;20506;-61
2022/01/05 22:21:55;;;;;;;4.73;2.00;;;;;;;;;;10246157;28;20050;-62
2022/01/05 22:26:57;;;;;;;5.50;2.63;;;;;;;;;;10246408;28;20434;-61
2022/01/05 22:32:02;;;;;;;4.80;2.20;;;;;;;;;;10246278;28;20266;-61
2022/01/05 22:37:03;;;;;;;6.03;2.33;;;;;;;;;;10246518;28;20397;-62
2022/01/05 22:42:03;;;;;;;4.68;2.63;;;;;;;;;;10245987;28;20031;-62
2022/01/05 22:47:04;;;;;;;7.68;2.95;;;;;;;;;;10246317;28;20480;-61
2022/01/05 22:52:05;;;;;;;6.10;2.40;;;;;;;;;;10242098;29;20263;-62
2022/01/05 22:57:05;;;;;;;6.82;2.55;;;;;;;;;;10245838;28;20069;-62
2022/01/05 23:02:06;;;;;;;3.28;2.28;;;;;;;;;;10241110;28;20439;-62
2022/01/05 23:07:07;;;;;;;5.77;2.87;;;;;;;;;;10246191;28;20023;-62
2022/01/05 23:12:08;;;;;;;8.55;2.80;;;;;;;;;;10253278;28;20807;-62
2022/01/05 23:17:08;;;;;;;5.28;2.53;;;;;;;;;;10255496;28;20057;-62
2022/01/05 23:22:09;;;;;;;4.27;2.50;;;;;;;;;;10254044;28;20462;-62
2022/01/05 23:27:09;;;;;;;5.67;2.67;;;;;;;;;;10254352;28;20465;-62
2022/01/05 23:32:09;;;;;;;7.47;2.97;;;;;;;;;;10254516;28;20536;-62
2022/01/05 23:37:10;;;;;;;9.37;3.50;;;;;;;;;;10253937;28;20433;-61
2022/01/05 23:42:10;;;;;;;8.43;3.13;;;;;;;;;;10253437;28;20059;-62
2022/01/05 23:47:12;;;;;;;4.90;2.80;;;;;;;;;;10253477;28;20530;-60
2022/01/05 23:52:12;;;;;;;7.75;3.03;;;;;;;;;;10253153;28;20031;-61
2022/01/05 23:57:13;;;;;;;5.50;2.63;;;;;;;;;;10253141;28;20034;-61
